Main page
METAR-TAF:

METAR-TAF

Airports :

Mont-De-Marsan, France

latitude: 43-55N, longitude: 000-30W, elevation: 62 m

Current weather observation

The report was made 24 minutes ago, at 23:00 UTC
Wind 6 kt from the East
Temperature 15°C
Humidity 59%
Pressure 997 hPa
Visibility 10 km or more
no clouds below 1500 m and no cumulonimbus

METAR: LFBM 222300Z AUTO 10006KT CAVOK 15/07 Q0997 NOSIG

Time: 01:24 (23:24 UTC)

Forecast

The report was made 3 hours and 24 minutes ago, at 20:00 UTC
Forecast valid from 22 at 21 UTC to 23 at 21 UTC
Wind 5 kt from the East
Visibility 10 km or more
no clouds below 1500 m and no cumulonimbus
Temporary
from 23 at 14 UTC to 23 at 18 UTC
Wind 15 kt from variable directions with gusts up to 25 kt
Visibility: 4000 m
Broken clouds at a height of 1000 ft
Broken clouds at a height of 3000 ft, Cumulonimbus.
rain showers

TAF: LFBM 222000Z 2221/2321 09005KT CAVOK TEMPO 2314/2318 VRB15G25KT 4000 SHRA BKN010 BKN030CB

Weather observations and forecasts of more than 4000 airports (METAR and TAF reports).

The available stations are represented by yellow and red dots on the map.

Hover mouse over dot to see the name of the station.

Then click to see weather observations and forecasts.

To change the map : click on the green buttons with a black cross to zoom in, on the green button with a dash to zoom out, or on the green arrows for adjacent maps.


METAR-TAF: